Skip Navigation Links Skip Navigation Links

Current Weather

Katherine Aerodrome, Katherine, Australia

For information only: do not use for flight planning or navigation.
Latest weather
Observation time Tuesday, October 19, 2021 8:00 PM AEDT
Local time Tuesday, October 19, 2021 8:22 PM AEDT
Flight conditions Visual Meteorological Conditions
Winds
Wind direction North-Northwest (330°)
Wind speed 6 mph
Visibility 6.2 mi.
Sky condition
Ceiling unlimited
Temperature 93°F
Dewpoint 66°F
Altimeter 29.80 in.Hg
Derived measurements
Relative humidity 41%
Heat index 96°F
Density altitude 2959 ft.
Remarks
Fully automated report.
METAR YPTN 190900Z AUTO 33005KT 9999 // NCD 34/19 Q1009 RF00.0/001.2 DL-SW

Settings

Location code

InnerDrive.Weather 4.0.6770.0 Release CLR 4.0.30319.42000
Copyright ©2018 Inner Drive Technology. All rights reserved. Portions Copyright ©1986-2018 David Braverman.

Find weather

Site navigation


Skip Navigation Links

Place info

Page info

PayPal - The safer, easier way to pay online!

Return home.

Copyright ©2021 Inner Drive Technology. Purveyors of fine, hand-crafted computer software. Page printed 2021-10-19T09:22:17 UTC.